Time;durP1;ratioP1;P1;durP2;ratioP2;P2;SDS_P1;SDS_P2;PMS_P1;PMS_P2;Temp;Humidity;BMP_temperature;BMP_pressure;BME280_temperature;BME280_humidity;BME280_pressure;Samples;Min_cycle;Max_cycle;Signal;HPM_P1;HPM_P2
2022/12/11 00:00:26;;;;;;;2.35;2.15;;;-0.30;99.90;;;;;;5102199;28;20047;-63
2022/12/11 00:02:52;;;;;;;2.15;1.92;;;-0.30;99.90;;;;;;5103000;27;20072;-62
2022/12/11 00:05:19;;;;;;;2.72;2.53;;;-0.40;99.90;;;;;;5102263;28;20638;-63
2022/12/11 00:07:46;;;;;;;2.95;2.35;;;-0.30;99.90;;;;;;5102443;28;20047;-63
2022/12/11 00:10:13;;;;;;;2.88;2.35;;;-0.30;99.90;;;;;;5098675;28;20493;-62
2022/12/11 00:12:40;;;;;;;3.10;2.55;;;-0.40;99.90;;;;;;5100668;28;20047;-65
2022/12/11 00:15:07;;;;;;;2.58;2.35;;;-0.40;99.90;;;;;;5097868;28;20043;-63
2022/12/11 00:17:35;;;;;;;1.88;1.77;;;-0.40;99.90;;;;;;5100771;28;20063;-63
2022/12/11 00:20:02;;;;;;;2.90;2.58;;;-0.40;99.90;;;;;;5102438;28;20448;-63
2022/12/11 00:22:30;;;;;;;2.50;2.30;;;-0.40;99.90;;;;;;5102501;28;20085;-63
2022/12/11 00:24:56;;;;;;;2.55;2.25;;;-0.40;99.90;;;;;;5099022;28;20040;-62
2022/12/11 00:27:23;;;;;;;2.35;2.00;;;-0.40;99.90;;;;;;5100849;28;20043;-62
2022/12/11 00:29:50;;;;;;;2.65;2.22;;;-0.40;99.90;;;;;;5101078;28;20043;-62
2022/12/11 00:32:17;;;;;;;3.05;2.22;;;-0.40;99.90;;;;;;5102053;28;21707;-65
2022/12/11 00:34:44;;;;;;;2.83;2.33;;;-0.40;99.90;;;;;;5098894;28;20047;-62
2022/12/11 00:37:11;;;;;;;2.10;1.90;;;-0.30;99.90;;;;;;5101259;28;20054;-63
2022/12/11 00:39:38;;;;;;;2.38;1.90;;;-0.30;99.90;;;;;;5098942;28;20055;-63
2022/12/11 00:42:06;;;;;;;2.15;1.60;;;-0.30;99.90;;;;;;5101643;28;20138;-65
2022/12/11 00:44:34;;;;;;;2.40;2.20;;;-0.30;99.90;;;;;;5103478;28;20036;-64
2022/12/11 00:47:01;;;;;;;2.33;1.80;;;-0.40;99.90;;;;;;5099850;28;20048;-63
2022/12/11 00:49:28;;;;;;;4.45;2.63;;;-0.40;99.90;;;;;;5098775;28;20066;-63
2022/12/11 00:51:55;;;;;;;1.65;1.55;;;-0.30;99.90;;;;;;5102310;28;20058;-63
2022/12/11 00:54:22;;;;;;;3.05;2.10;;;-0.30;99.90;;;;;;5102250;28;20062;-63
2022/12/11 00:56:49;;;;;;;2.88;2.38;;;-0.30;99.90;;;;;;5096613;28;20661;-65
2022/12/11 00:59:16;;;;;;;1.80;1.70;;;-0.30;99.90;;;;;;5097615;28;20043;-62
2022/12/11 01:01:43;;;;;;;2.83;1.90;;;-0.30;99.90;;;;;;5102092;28;20054;-63
2022/12/11 01:04:10;;;;;;;2.15;1.95;;;-0.30;99.90;;;;;;5100436;28;20051;-64
2022/12/11 01:06:38;;;;;;;1.60;1.50;;;-0.30;99.90;;;;;;5097840;28;20032;-63
2022/12/11 01:11:51;;;;;;;2.80;1.52;;;-0.30;99.90;;;;;;5098905;28;20039;-64
2022/12/11 01:14:18;;;;;;;3.40;2.13;;;-0.30;99.90;;;;;;5103050;28;20052;-63
2022/12/11 01:16:45;;;;;;;1.83;1.63;;;-0.30;99.90;;;;;;5098831;28;20043;-63
2022/12/11 01:19:12;;;;;;;2.20;1.80;;;-0.30;99.90;;;;;;5079898;28;20082;-65
2022/12/11 01:21:40;;;;;;;2.13;1.92;;;-0.40;99.90;;;;;;5101699;28;20078;-63
2022/12/11 01:24:06;;;;;;;1.52;1.42;;;-0.40;99.90;;;;;;5103306;28;20427;-63
2022/12/11 01:26:33;;;;;;;2.25;2.05;;;-0.30;99.90;;;;;;5098081;28;20065;-65
2022/12/11 01:29:00;;;;;;;2.45;1.75;;;-0.40;99.90;;;;;;5096414;28;20052;-62
2022/12/11 01:31:28;;;;;;;3.03;1.67;;;-0.30;99.90;;;;;;5099314;28;20488;-62
2022/12/11 01:33:55;;;;;;;1.38;1.27;;;-0.30;99.90;;;;;;5101233;28;20412;-63
2022/12/11 01:36:22;;;;;;;2.13;1.92;;;-0.40;99.90;;;;;;5096066;28;20040;-64
2022/12/11 01:38:49;;;;;;;2.03;1.92;;;-0.40;99.90;;;;;;5099359;28;20046;-63
2022/12/11 01:41:17;;;;;;;2.08;1.88;;;-0.30;99.90;;;;;;5094655;28;20039;-64
2022/12/11 01:44:26;;;;;;;2.10;1.90;;;-0.40;99.90;;;;;;5101342;28;20071;-64
2022/12/11 01:46:53;;;;;;;2.22;2.00;;;-0.30;99.90;;;;;;5098209;28;20051;-63
2022/12/11 01:49:24;;;;;;;2.45;2.25;;;-0.40;99.90;;;;;;5098122;28;20042;-64
2022/12/11 01:51:57;;;;;;;;;;;-0.30;99.90;;;;;;5101048;28;20142;-62
2022/12/11 01:54:26;;;;;;;2.00;1.80;;;-0.30;99.90;;;;;;5100429;28;19942;-63
2022/12/11 01:56:56;;;;;;;1.50;1.40;;;-0.40;99.90;;;;;;5097042;28;20180;-62
2022/12/11 01:59:27;;;;;;;4.10;1.70;;;-0.30;99.90;;;;;;5099262;28;20043;-65
2022/12/11 02:01:58;;;;;;;2.72;2.38;;;-0.40;99.90;;;;;;5105891;27;20059;-63
2022/12/11 02:04:25;;;;;;;3.35;1.60;;;-0.30;99.90;;;;;;5102373;28;20134;-64
2022/12/11 02:06:52;;;;;;;5.75;2.60;;;-0.30;99.90;;;;;;5097966;28;20427;-63
2022/12/11 02:09:22;;;;;;;4.57;2.85;;;-0.30;99.90;;;;;;5104664;28;20374;-63
2022/12/11 02:11:52;;;;;;;3.17;1.90;;;-0.30;99.90;;;;;;5102275;28;20052;-62
2022/12/11 02:14:26;;;;;;;1.98;1.80;;;-0.40;99.90;;;;;;5103716;28;20047;-64
2022/12/11 02:17:10;;;;;;;1.80;1.15;;;-0.40;99.90;;;;;;5107202;28;20056;-62
2022/12/11 02:20:00;;;;;;;1.52;1.42;;;-0.40;99.90;;;;;;5101883;28;20056;-63
2022/12/11 02:23:09;;;;;;;2.63;1.80;;;-0.40;99.90;;;;;;5091465;28;20040;-63
2022/12/11 02:25:55;;;;;;;1.73;1.25;;;-0.40;99.90;;;;;;5097842;28;20054;-62
2022/12/11 02:28:24;;;;;;;1.70;1.45;;;-0.40;99.90;;;;;;5103093;28;20083;-64
2022/12/11 02:31:00;;;;;;;1.20;1.10;;;-0.40;99.90;;;;;;5098869;28;20105;-63
2022/12/11 02:33:44;;;;;;;2.38;1.52;;;-0.40;99.90;;;;;;5105031;28;20295;-63
2022/12/11 02:36:14;;;;;;;2.08;1.50;;;-0.40;99.90;;;;;;5101439;28;21957;-64
2022/12/11 02:38:49;;;;;;;1.70;1.30;;;-0.40;99.90;;;;;;5103224;28;20031;-62
2022/12/11 02:41:19;;;;;;;2.00;1.70;;;-0.40;99.90;;;;;;5102107;28;20056;-64
2022/12/11 02:43:49;;;;;;;1.27;1.13;;;-0.40;99.90;;;;;;5102885;28;20048;-63
2022/12/11 02:46:18;;;;;;;2.45;1.40;;;-0.40;99.90;;;;;;5102927;28;20146;-64
2022/12/11 02:48:48;;;;;;;2.45;1.73;;;-0.40;99.90;;;;;;5103178;28;20462;-62
2022/12/11 02:51:17;;;;;;;2.55;1.85;;;-0.40;99.90;;;;;;5104782;28;20504;-63
2022/12/11 02:53:45;;;;;;;2.05;1.50;;;-0.40;99.90;;;;;;5097670;28;20369;-62
2022/12/11 02:56:18;;;;;;;1.25;1.15;;;-0.40;99.90;;;;;;5103835;28;20366;-63
2022/12/11 02:58:49;;;;;;;2.72;1.50;;;-0.40;99.90;;;;;;5101046;28;20082;-62
2022/12/11 03:01:25;;;;;;;2.15;1.95;;;-0.40;99.90;;;;;;5103582;28;20054;-63
2022/12/11 03:03:53;;;;;;;1.88;1.48;;;-0.40;99.90;;;;;;5103820;28;20758;-62
2022/12/11 03:06:26;;;;;;;1.45;1.30;;;-0.40;99.90;;;;;;5100399;28;20050;-63
2022/12/11 03:08:53;;;;;;;1.85;1.73;;;-0.40;99.90;;;;;;5096624;28;20074;-63
2022/12/11 03:11:20;;;;;;;2.95;2.00;;;-0.40;99.90;;;;;;5098268;28;20466;-63
2022/12/11 03:13:47;;;;;;;2.78;2.20;;;-0.40;99.90;;;;;;5084483;28;20040;-63
2022/12/11 03:16:35;;;;;;;2.15;1.80;;;-0.40;99.90;;;;;;5100584;28;20070;-63
2022/12/11 03:19:39;;;;;;;2.30;1.60;;;-0.40;99.90;;;;;;5103058;28;20047;-66
2022/12/11 03:22:15;;;;;;;5.05;2.28;;;-0.40;99.90;;;;;;5092137;27;20409;-63
2022/12/11 03:24:49;;;;;;;1.67;1.58;;;-0.30;99.90;;;;;;5101052;28;20106;-62
2022/12/11 03:27:35;;;;;;;1.90;1.52;;;-0.40;99.90;;;;;;5104468;28;20047;-63
2022/12/11 03:30:15;;;;;;;1.48;1.23;;;-0.40;99.90;;;;;;5096987;28;20493;-64
2022/12/11 03:32:56;;;;;;;1.70;1.40;;;-0.40;99.90;;;;;;5100989;28;20039;-63
2022/12/11 03:35:58;;;;;;;1.88;1.67;;;-0.40;99.90;;;;;;5098908;28;20050;-63
2022/12/11 03:38:32;;;;;;;1.55;1.45;;;-0.40;99.90;;;;;;5069286;28;20044;-62
2022/12/11 03:41:02;;;;;;;2.83;1.60;;;-0.40;99.90;;;;;;5101787;28;20051;-65
2022/12/11 03:43:30;;;;;;;2.28;1.35;;;-0.40;99.90;;;;;;5100325;28;20075;-62
2022/12/11 03:45:59;;;;;;;2.35;1.73;;;-0.40;99.90;;;;;;5104129;28;20052;-62
2022/12/11 03:48:33;;;;;;;2.88;1.88;;;-0.40;99.90;;;;;;5102519;28;20044;-64
2022/12/11 03:51:04;;;;;;;2.05;1.85;;;-0.40;99.90;;;;;;5102247;28;20051;-63
2022/12/11 03:53:32;;;;;;;;;;;-0.40;99.90;;;;;;5105760;28;20058;-63
2022/12/11 03:56:00;;;;;;;2.60;1.75;;;-0.40;99.90;;;;;;5101233;28;19923;-63
2022/12/11 03:58:27;;;;;;;3.78;1.80;;;-0.40;99.90;;;;;;5101347;28;20047;-62
2022/12/11 04:00:54;;;;;;;2.20;2.00;;;-0.40;99.90;;;;;;5096751;28;20066;-63
2022/12/11 04:03:21;;;;;;;2.45;1.88;;;-0.40;99.90;;;;;;5103926;28;20047;-62
2022/12/11 04:05:50;;;;;;;1.88;1.52;;;-0.40;99.90;;;;;;5101153;28;20069;-62
2022/12/11 04:08:19;;;;;;;1.73;1.60;;;-0.40;99.90;;;;;;5099856;28;20040;-64
2022/12/11 04:10:46;;;;;;;1.87;1.77;;;-0.40;99.90;;;;;;5090369;28;20048;-62
2022/12/11 04:13:13;;;;;;;1.65;1.52;;;-0.50;99.90;;;;;;5099362;28;20147;-62
2022/12/11 04:15:40;;;;;;;2.72;1.67;;;-0.40;99.90;;;;;;5102247;28;20545;-62
2022/12/11 04:26:26;;;;;;;4.78;1.65;;;-0.50;99.90;;;;;;5099093;28;20053;-63
2022/12/11 04:28:53;;;;;;;1.92;1.30;;;-0.50;99.90;;;;;;5097375;28;20406;-63
2022/12/11 04:31:21;;;;;;;2.25;1.48;;;-0.50;99.90;;;;;;5100342;28;20044;-63
2022/12/11 04:33:48;;;;;;;2.40;1.58;;;-0.50;99.90;;;;;;5100803;28;20450;-62
2022/12/11 04:36:16;;;;;;;4.05;1.77;;;-0.50;99.90;;;;;;5104988;28;20040;-63
2022/12/11 04:38:42;;;;;;;2.03;1.92;;;-0.50;99.90;;;;;;5097393;28;20119;-62
2022/12/11 04:41:12;;;;;;;3.22;2.58;;;-0.50;99.90;;;;;;5099883;28;20438;-63
2022/12/11 04:43:39;;;;;;;2.15;2.00;;;-0.50;99.90;;;;;;5097167;28;20036;-62
2022/12/11 04:46:18;;;;;;;2.67;1.77;;;-0.50;99.90;;;;;;5099653;28;20054;-63
2022/12/11 04:48:46;;;;;;;2.28;1.58;;;-0.50;99.90;;;;;;5096304;28;20051;-66
2022/12/11 04:51:19;;;;;;;2.05;1.63;;;-0.50;99.90;;;;;;5100691;28;20497;-64
2022/12/11 04:53:46;;;;;;;1.70;1.60;;;-0.50;99.90;;;;;;5095106;28;20050;-63
2022/12/11 04:56:15;;;;;;;1.67;1.58;;;-0.60;99.90;;;;;;5101739;28;20063;-62
2022/12/11 04:58:43;;;;;;;2.67;1.80;;;-0.50;99.90;;;;;;5095746;28;20403;-63
2022/12/11 05:01:18;;;;;;;1.92;1.48;;;-0.60;99.90;;;;;;5100374;28;20431;-62
2022/12/11 05:03:45;;;;;;;4.93;1.75;;;-0.50;99.90;;;;;;5098162;28;20117;-63
2022/12/11 05:06:13;;;;;;;2.55;2.10;;;-0.50;99.90;;;;;;5101278;28;20043;-65
2022/12/11 05:08:41;;;;;;;2.15;1.88;;;-0.50;99.90;;;;;;5097467;28;20032;-64
2022/12/11 05:11:10;;;;;;;2.72;1.75;;;-0.40;99.90;;;;;;5097426;28;20073;-63
2022/12/11 05:13:38;;;;;;;2.10;1.63;;;-0.50;99.90;;;;;;5100435;28;20131;-66
2022/12/11 05:16:06;;;;;;;2.55;1.83;;;-0.60;99.90;;;;;;5101371;28;20096;-64
2022/12/11 05:18:33;;;;;;;1.85;1.67;;;-0.60;99.90;;;;;;5098752;28;20047;-66
2022/12/11 05:21:06;;;;;;;2.20;2.00;;;-0.60;99.90;;;;;;5098847;28;20446;-63
2022/12/11 05:23:33;;;;;;;2.60;1.90;;;-0.70;99.90;;;;;;5092935;28;20120;-64
2022/12/11 05:26:04;;;;;;;2.22;1.92;;;-0.70;99.90;;;;;;5083118;28;20459;-62
2022/12/11 05:28:32;;;;;;;2.03;1.77;;;-0.60;99.90;;;;;;5100411;28;20419;-64
2022/12/11 05:31:09;;;;;;;2.55;2.35;;;-0.60;99.90;;;;;;5097890;28;20054;-62
2022/12/11 05:33:36;;;;;;;1.77;1.67;;;-0.60;99.90;;;;;;5097483;28;20063;-67
2022/12/11 05:36:03;;;;;;;2.25;1.80;;;-0.60;99.90;;;;;;5100811;28;20044;-63
2022/12/11 05:38:30;;;;;;;2.60;1.90;;;-0.60;99.90;;;;;;5097578;28;20150;-63
2022/12/11 05:41:03;;;;;;;1.88;1.65;;;-0.60;99.90;;;;;;5098005;28;20055;-63
2022/12/11 05:43:32;;;;;;;3.85;2.30;;;-0.60;99.90;;;;;;5097186;28;20066;-64
2022/12/11 05:46:15;;;;;;;2.90;2.03;;;-0.70;99.90;;;;;;5102767;28;20054;-63
2022/12/11 05:48:45;;;;;;;2.30;1.83;;;-0.70;99.90;;;;;;5097510;28;20032;-63
2022/12/11 05:51:13;;;;;;;2.38;1.65;;;-0.70;99.90;;;;;;5101419;28;20050;-63
2022/12/11 05:53:41;;;;;;;2.08;1.65;;;-0.70;99.90;;;;;;5099639;28;20462;-63
2022/12/11 05:56:13;;;;;;;2.50;1.65;;;-0.70;99.90;;;;;;5102568;28;20438;-66
2022/12/11 05:58:41;;;;;;;3.25;1.65;;;-0.70;99.90;;;;;;5095252;28;20492;-66
2022/12/11 06:01:15;;;;;;;1.38;1.27;;;-0.70;99.90;;;;;;5099140;28;20060;-65
2022/12/11 06:03:42;;;;;;;1.50;1.40;;;-0.70;99.90;;;;;;5097061;28;20119;-62
2022/12/11 06:06:09;;;;;;;1.77;1.33;;;-0.70;99.90;;;;;;5094418;28;20093;-65
2022/12/11 06:08:36;;;;;;;2.05;1.50;;;-0.70;99.90;;;;;;5101654;28;20507;-62
2022/12/11 06:11:03;;;;;;;1.63;1.30;;;-0.70;99.90;;;;;;5099076;28;20067;-63
2022/12/11 06:13:30;;;;;;;1.90;1.55;;;-0.70;99.90;;;;;;5097528;28;20419;-65
2022/12/11 06:16:02;;;;;;;1.35;1.10;;;-0.70;99.90;;;;;;5097261;28;20050;-63
2022/12/11 06:18:29;;;;;;;1.77;1.48;;;-0.70;99.90;;;;;;5094707;28;20079;-63
2022/12/11 06:20:56;;;;;;;2.33;1.70;;;-0.70;99.90;;;;;;5097927;28;20051;-63
2022/12/11 06:23:23;;;;;;;1.80;1.70;;;-0.70;99.90;;;;;;5096444;28;20043;-63
2022/12/11 06:25:50;;;;;;;1.88;1.50;;;-0.70;99.90;;;;;;5096697;28;20478;-62
2022/12/11 06:28:17;;;;;;;1.45;1.35;;;-0.70;99.90;;;;;;5096911;28;20066;-64
2022/12/11 06:30:44;;;;;;;1.85;1.65;;;-0.70;99.90;;;;;;5097040;28;20150;-64
2022/12/11 06:33:11;;;;;;;1.83;1.63;;;-0.70;99.90;;;;;;5100987;28;20044;-62
2022/12/11 06:35:37;;;;;;;2.25;2.03;;;-0.70;99.90;;;;;;5099482;28;20039;-66
2022/12/11 06:38:09;;;;;;;2.67;1.83;;;-0.70;99.90;;;;;;5098888;28;20040;-62
2022/12/11 06:40:37;;;;;;;2.13;1.70;;;-0.70;99.90;;;;;;5098457;28;20055;-63
2022/12/11 06:43:03;;;;;;;1.75;1.45;;;-0.70;99.90;;;;;;5096601;28;20063;-63
2022/12/11 06:45:30;;;;;;;2.35;1.92;;;-0.70;99.90;;;;;;5100078;28;20040;-63
2022/12/11 06:47:57;;;;;;;1.70;1.60;;;-0.70;99.90;;;;;;5106147;28;20047;-63
2022/12/11 06:50:24;;;;;;;2.22;2.13;;;-0.80;99.90;;;;;;5101712;28;20040;-65
2022/12/11 06:52:51;;;;;;;3.05;2.08;;;-0.80;99.90;;;;;;5101533;28;20359;-62
2022/12/11 06:55:18;;;;;;;1.65;1.35;;;-0.70;99.90;;;;;;5103799;28;20059;-64
2022/12/11 06:57:45;;;;;;;2.03;1.75;;;-0.70;99.90;;;;;;5102539;28;20137;-63
2022/12/11 07:00:13;;;;;;;2.50;1.52;;;-0.70;99.90;;;;;;5100334;28;20460;-65
2022/12/11 07:02:40;;;;;;;4.40;1.98;;;-0.70;99.90;;;;;;5103511;28;20426;-64
2022/12/11 07:05:07;;;;;;;1.90;1.80;;;-0.70;99.90;;;;;;5098384;28;20054;-63
2022/12/11 07:07:34;;;;;;;2.45;1.42;;;-0.70;99.90;;;;;;5097596;28;20044;-63
2022/12/11 07:10:00;;;;;;;3.38;2.03;;;-0.70;99.90;;;;;;5090815;28;20055;-62
2022/12/11 07:12:34;;;;;;;2.03;1.88;;;-0.70;99.90;;;;;;5099733;28;20039;-62
2022/12/11 07:15:02;;;;;;;2.45;1.35;;;-0.70;99.90;;;;;;5094616;28;20039;-64
2022/12/11 07:17:30;;;;;;;2.33;2.13;;;-0.70;99.90;;;;;;5095404;28;20036;-63
2022/12/11 07:19:56;;;;;;;2.33;2.00;;;-0.80;99.90;;;;;;5097893;28;20157;-63
2022/12/11 07:22:23;;;;;;;1.45;1.35;;;-0.80;99.90;;;;;;5101210;28;20169;-64
2022/12/11 07:24:50;;;;;;;2.10;1.95;;;-0.80;99.90;;;;;;5093716;28;20039;-65
2022/12/11 07:27:17;;;;;;;3.40;2.55;;;-0.70;99.90;;;;;;5095897;28;20505;-63
2022/12/11 07:29:44;;;;;;;2.45;1.73;;;-0.70;99.90;;;;;;5100061;28;20066;-63
2022/12/11 07:32:10;;;;;;;2.08;1.88;;;-0.70;99.90;;;;;;5095652;28;20044;-64
2022/12/11 07:34:38;;;;;;;1.67;1.58;;;-0.70;99.90;;;;;;5099255;28;20055;-64
2022/12/11 07:37:04;;;;;;;2.13;1.98;;;-0.70;99.90;;;;;;5095919;28;20045;-62
2022/12/11 07:39:31;;;;;;;1.95;1.67;;;-0.70;99.90;;;;;;5094292;28;20051;-65
2022/12/11 07:41:58;;;;;;;2.33;2.05;;;-0.80;99.90;;;;;;5091638;28;20055;-63
2022/12/11 07:44:25;;;;;;;2.60;1.75;;;-0.80;99.90;;;;;;5093383;28;20049;-63
2022/12/11 07:46:52;;;;;;;2.30;2.15;;;-0.80;99.90;;;;;;5095473;28;20054;-63
2022/12/11 07:49:19;;;;;;;1.50;1.40;;;-0.90;99.90;;;;;;5095340;28;20051;-62
2022/12/11 07:51:45;;;;;;;2.55;1.63;;;-0.90;99.90;;;;;;5097129;28;20650;-62
2022/12/11 07:54:15;;;;;;;1.88;1.42;;;-0.90;99.90;;;;;;5096665;28;20166;-62
2022/12/11 07:56:43;;;;;;;1.15;1.05;;;-0.90;99.90;;;;;;5097464;28;20106;-63
2022/12/11 07:59:19;;;;;;;2.80;2.08;;;-0.90;99.90;;;;;;5078840;28;20171;-63
2022/12/11 08:01:46;;;;;;;2.70;1.73;;;-0.90;99.90;;;;;;5091760;28;20048;-64
2022/12/11 08:04:14;;;;;;;1.85;1.63;;;-0.90;99.90;;;;;;5089341;28;20208;-63
2022/12/11 08:06:42;;;;;;;2.80;2.35;;;-0.80;99.90;;;;;;5088180;28;20379;-63
2022/12/11 08:09:11;;;;;;;2.17;1.75;;;-0.80;99.90;;;;;;5091122;28;20124;-65
2022/12/11 08:11:49;;;;;;;3.58;2.15;;;-0.80;99.90;;;;;;5089596;28;20118;-62
2022/12/11 08:14:16;;;;;;;1.60;1.33;;;-0.80;99.90;;;;;;5092507;28;20145;-63
2022/12/11 08:16:43;;;;;;;3.00;2.03;;;-0.80;99.90;;;;;;5089169;28;20047;-63
2022/12/11 08:19:11;;;;;;;2.90;1.70;;;-0.80;99.90;;;;;;5099186;28;20055;-63
2022/12/11 08:21:39;;;;;;;2.75;2.33;;;-0.80;99.90;;;;;;5096586;28;20040;-63
2022/12/11 08:24:06;;;;;;;3.17;2.47;;;-0.80;99.90;;;;;;5093922;28;20052;-62
2022/12/11 08:26:33;;;;;;;2.08;1.60;;;-0.80;99.90;;;;;;5092077;28;20052;-63
2022/12/11 08:29:01;;;;;;;1.85;1.63;;;-0.80;99.90;;;;;;5090912;28;20433;-64
2022/12/11 08:31:28;;;;;;;2.78;2.00;;;-0.80;99.90;;;;;;5096583;28;20054;-63
2022/12/11 08:33:56;;;;;;;1.50;1.40;;;-0.80;99.90;;;;;;5096719;28;21692;-63
2022/12/11 08:36:23;;;;;;;2.22;1.70;;;-0.90;99.90;;;;;;5097840;28;20157;-63
2022/12/11 08:38:54;;;;;;;2.38;1.20;;;-0.90;99.90;;;;;;5089682;28;20079;-63
2022/12/11 08:41:27;;;;;;;1.73;1.63;;;-0.80;99.90;;;;;;5095047;28;20131;-65
2022/12/11 08:43:55;;;;;;;2.40;2.20;;;-0.70;99.90;;;;;;5094801;28;20055;-65
2022/12/11 08:46:25;;;;;;;1.55;1.33;;;-0.70;99.90;;;;;;5090837;28;20606;-64
2022/12/11 08:48:53;;;;;;;1.60;1.42;;;-0.60;99.90;;;;;;5095021;28;20048;-63
2022/12/11 08:51:23;;;;;;;2.20;2.00;;;-0.60;99.90;;;;;;5093033;28;20050;-64
2022/12/11 08:53:50;;;;;;;1.92;1.73;;;-0.60;99.90;;;;;;5097175;28;20134;-64
2022/12/11 08:56:19;;;;;;;2.80;1.75;;;-0.60;99.90;;;;;;5094938;28;20054;-63
2022/12/11 08:58:46;;;;;;;4.78;1.85;;;-0.60;99.90;;;;;;5092591;28;20052;-64
2022/12/11 09:01:20;;;;;;;1.55;1.40;;;-0.60;99.90;;;;;;5099841;28;20036;-63
2022/12/11 09:03:48;;;;;;;2.67;1.40;;;-0.70;99.90;;;;;;5099364;28;20362;-64
2022/12/11 09:06:17;;;;;;;2.42;1.73;;;-0.70;99.90;;;;;;5094813;28;20047;-64
2022/12/11 09:08:46;;;;;;;2.40;1.90;;;-0.70;99.90;;;;;;5091149;28;20052;-63
2022/12/11 09:11:21;;;;;;;2.05;1.85;;;-0.70;99.90;;;;;;5091352;28;20483;-65
2022/12/11 09:13:48;;;;;;;2.13;1.77;;;-0.70;99.90;;;;;;5098239;28;20083;-66
2022/12/11 09:16:17;;;;;;;2.83;1.80;;;-0.70;99.90;;;;;;5100154;28;20417;-63
2022/12/11 09:18:46;;;;;;;2.30;1.80;;;-0.80;99.90;;;;;;5095126;28;20126;-63
2022/12/11 09:21:16;;;;;;;2.63;1.55;;;-0.70;99.90;;;;;;5094039;28;20127;-63
2022/12/11 09:23:44;;;;;;;1.75;1.63;;;-0.70;99.90;;;;;;5096280;28;20059;-64
2022/12/11 09:26:14;;;;;;;1.60;1.50;;;-0.70;99.90;;;;;;5094084;28;20055;-63
2022/12/11 09:28:42;;;;;;;1.55;1.23;;;-0.70;99.90;;;;;;5071043;28;20197;-63
2022/12/11 09:31:18;;;;;;;1.48;1.38;;;-0.60;99.90;;;;;;5094548;28;20054;-63
2022/12/11 09:33:46;;;;;;;1.48;1.38;;;-0.70;99.90;;;;;;5103067;28;20036;-65
2022/12/11 09:36:13;;;;;;;1.55;1.45;;;-0.70;99.90;;;;;;5098951;28;20154;-62
2022/12/11 09:38:42;;;;;;;1.50;1.40;;;-0.70;99.90;;;;;;5101821;28;20430;-66
2022/12/11 09:41:39;;;;;;;1.65;1.45;;;-0.70;99.90;;;;;;5093551;28;20359;-64
2022/12/11 09:44:31;;;;;;;1.50;1.38;;;-0.70;99.90;;;;;;5091759;28;20055;-63
2022/12/11 09:46:58;;;;;;;2.33;1.65;;;-0.70;99.90;;;;;;5093284;28;20055;-63
2022/12/11 09:49:30;;;;;;;1.52;1.42;;;-0.70;99.90;;;;;;5094896;28;20047;-64
2022/12/11 09:52:01;;;;;;;1.67;1.35;;;-0.60;99.90;;;;;;5094970;28;20051;-63
2022/12/11 09:54:28;;;;;;;1.52;1.33;;;-0.60;99.90;;;;;;5094244;28;20108;-64
2022/12/11 09:57:14;;;;;;;1.38;1.25;;;-0.60;99.90;;;;;;5093455;28;20044;-63
2022/12/11 09:59:57;;;;;;;1.52;1.30;;;-0.60;99.90;;;;;;5096273;28;20054;-63
2022/12/11 10:02:49;;;;;;;1.38;1.17;;;-0.70;99.90;;;;;;5097358;28;20092;-63
2022/12/11 10:05:30;;;;;;;1.95;1.45;;;-0.60;99.90;;;;;;5094963;28;20067;-63
2022/12/11 10:08:08;;;;;;;2.05;1.60;;;-0.70;99.90;;;;;;5095559;28;20139;-64
2022/12/11 10:10:54;;;;;;;1.38;1.25;;;-0.70;99.90;;;;;;5098844;28;20058;-65
2022/12/11 10:13:24;;;;;;;2.13;1.52;;;-0.70;99.90;;;;;;5095151;28;20335;-64
2022/12/11 10:16:04;;;;;;;0.80;0.60;;;-0.60;99.90;;;;;;5095220;28;20126;-63
2022/12/11 10:18:32;;;;;;;2.00;1.30;;;-0.60;99.90;;;;;;5095257;28;20047;-64
2022/12/11 10:21:02;;;;;;;1.10;1.05;;;-0.60;99.90;;;;;;5100122;28;20044;-63
2022/12/11 10:23:49;;;;;;;0.77;0.77;;;-0.60;99.90;;;;;;5104319;27;20130;-62
2022/12/11 10:26:19;;;;;;;1.10;1.00;;;-0.60;99.90;;;;;;5107516;28;20056;-64
2022/12/11 10:28:46;;;;;;;1.77;1.27;;;-0.50;99.90;;;;;;5098517;28;20056;-63
2022/12/11 10:31:37;;;;;;;1.35;1.25;;;-0.50;99.90;;;;;;5100251;28;20057;-63
2022/12/11 10:34:14;;;;;;;1.50;1.20;;;-0.60;99.90;;;;;;5094126;28;20135;-63
2022/12/11 10:36:42;;;;;;;1.67;1.25;;;-0.60;99.90;;;;;;5093842;28;20055;-62
2022/12/11 10:39:18;;;;;;;2.17;1.88;;;-0.60;99.90;;;;;;5104707;28;20607;-64
2022/12/11 10:41:47;;;;;;;2.58;1.38;;;-0.50;99.90;;;;;;5095744;28;20071;-63
2022/12/11 10:44:17;;;;;;;1.38;1.10;;;-0.50;99.90;;;;;;5105001;28;20049;-63
2022/12/11 10:46:46;;;;;;;2.95;1.27;;;-0.60;99.90;;;;;;5101485;28;20059;-63
2022/12/11 10:49:29;;;;;;;1.20;1.10;;;-0.50;99.90;;;;;;5099065;28;20470;-63
2022/12/11 10:51:56;;;;;;;1.60;1.50;;;-0.50;99.90;;;;;;5097051;28;20132;-64
2022/12/11 10:54:32;;;;;;;3.00;1.33;;;-0.50;99.90;;;;;;5101840;28;20043;-63
2022/12/11 10:57:01;;;;;;;1.55;1.33;;;-0.40;99.90;;;;;;5095699;28;20086;-63
2022/12/11 10:59:47;;;;;;;1.50;0.93;;;-0.40;99.90;;;;;;5098328;28;20036;-64
2022/12/11 11:02:37;;;;;;;2.28;1.10;;;-0.40;99.90;;;;;;5104565;28;20138;-64
2022/12/11 11:05:27;;;;;;;1.45;1.30;;;-0.40;99.90;;;;;;5101064;28;20390;-63
2022/12/11 11:08:13;;;;;;;2.23;1.50;;;-0.40;99.90;;;;;;5102347;28;20143;-64
2022/12/11 11:11:00;;;;;;;1.52;1.42;;;-0.40;99.90;;;;;;5099586;28;20296;-63
2022/12/11 11:13:30;;;;;;;2.03;1.65;;;-0.40;99.90;;;;;;5098383;28;20126;-63
2022/12/11 11:16:18;;;;;;;1.63;1.15;;;-0.30;99.90;;;;;;5101522;28;20044;-64
2022/12/11 11:18:54;;;;;;;1.65;1.27;;;-0.30;99.90;;;;;;5101538;28;20412;-63
2022/12/11 11:21:23;;;;;;;0.90;0.90;;;-0.30;99.90;;;;;;5101692;28;20074;-64
2022/12/11 11:23:52;;;;;;;1.38;1.27;;;-0.20;99.90;;;;;;5099417;28;20054;-63
2022/12/11 11:26:24;;;;;;;3.05;1.95;;;-0.20;99.90;;;;;;5076830;28;20032;-66
2022/12/11 11:29:24;;;;;;;2.00;1.60;;;-0.20;99.90;;;;;;5099211;28;20125;-63
2022/12/11 11:31:51;;;;;;;2.10;1.30;;;-0.20;99.90;;;;;;5101682;28;20067;-63
2022/12/11 11:34:22;;;;;;;2.58;1.27;;;-0.20;99.90;;;;;;5082712;28;20043;-62
2022/12/11 11:36:57;;;;;;;1.75;1.50;;;-0.20;99.90;;;;;;5100860;28;20048;-64
2022/12/11 11:39:31;;;;;;;1.70;1.33;;;-0.20;99.90;;;;;;5097180;28;20051;-64
2022/12/11 11:42:26;;;;;;;1.98;1.50;;;-0.20;99.90;;;;;;5097723;28;20067;-63
2022/12/11 11:45:12;;;;;;;1.67;1.08;;;-0.10;99.90;;;;;;5101605;28;20048;-63
2022/12/11 11:48:12;;;;;;;1.38;1.30;;;-0.20;99.90;;;;;;5097614;28;20036;-63
2022/12/11 11:50:43;;;;;;;;;;;-0.20;99.90;;;;;;5090638;28;20377;-62
2022/12/11 11:53:23;;;;;;;1.30;1.20;;;-0.10;99.90;;;;;;5098732;28;20282;-62
2022/12/11 11:56:16;;;;;;;1.50;1.15;;;-0.20;99.90;;;;;;5098132;28;20403;-63
2022/12/11 11:58:46;;;;;;;2.50;0.90;;;-0.10;99.90;;;;;;5099935;28;20127;-63
2022/12/11 12:01:18;;;;;;;2.53;1.40;;;-0.10;99.90;;;;;;5103400;28;20040;-63
2022/12/11 12:03:47;;;;;;;1.50;1.40;;;-0.10;99.90;;;;;;5102851;28;20070;-64
2022/12/11 12:06:44;;;;;;;2.05;1.30;;;-0.10;99.90;;;;;;5102727;28;20044;-63
2022/12/11 12:09:43;;;;;;;1.50;1.40;;;-0.10;99.90;;;;;;5095937;28;20131;-67
2022/12/11 12:12:35;;;;;;;1.77;1.23;;;-0.20;99.90;;;;;;5099217;28;20279;-63
2022/12/11 12:15:17;;;;;;;1.48;1.13;;;-0.20;99.90;;;;;;5097228;28;20039;-63
2022/12/11 12:18:00;;;;;;;1.30;1.20;;;-0.10;99.90;;;;;;5092798;28;20433;-64
2022/12/11 12:20:31;;;;;;;2.10;1.90;;;-0.10;99.90;;;;;;5100406;28;20055;-63
2022/12/11 12:23:26;;;;;;;2.85;1.55;;;0.00;99.90;;;;;;5099545;28;20146;-63
2022/12/11 12:26:15;;;;;;;1.27;1.00;;;0.00;99.90;;;;;;5072136;28;20124;-63
2022/12/11 12:28:47;;;;;;;1.45;1.00;;;0.00;99.90;;;;;;5094641;28;20047;-63
2022/12/11 12:31:30;;;;;;;1.63;1.52;;;0.00;99.90;;;;;;5100115;28;20350;-65
2022/12/11 12:33:57;;;;;;;2.50;1.50;;;0.00;99.90;;;;;;5100833;28;20044;-64
2022/12/11 12:36:46;;;;;;;1.30;1.05;;;-0.10;99.90;;;;;;5101116;28;20051;-63
2022/12/11 12:39:44;;;;;;;1.20;1.10;;;-0.10;99.90;;;;;;5098391;28;20056;-63
2022/12/11 12:42:49;;;;;;;1.27;1.17;;;-0.10;99.90;;;;;;5095230;28;20043;-65
2022/12/11 12:45:31;;;;;;;2.28;2.08;;;-0.20;99.90;;;;;;5093304;28;20134;-62
2022/12/11 12:47:58;;;;;;;2.17;1.85;;;-0.20;99.90;;;;;;5099303;27;20059;-64
2022/12/11 12:50:32;;;;;;;1.77;1.67;;;-0.20;99.90;;;;;;5097840;28;20040;-63
2022/12/11 12:52:59;;;;;;;2.72;1.95;;;-0.20;99.90;;;;;;5098178;28;20051;-66
2022/12/11 12:55:30;;;;;;;5.82;2.90;;;-0.30;99.90;;;;;;5095660;28;20043;-63
2022/12/11 12:58:00;;;;;;;3.55;3.15;;;-0.30;99.90;;;;;;5097022;27;20190;-61
2022/12/11 13:00:37;;;;;;;4.38;3.97;;;-0.40;99.90;;;;;;5093996;27;20438;-62
2022/12/11 13:03:16;;;;;;;7.50;5.72;;;-0.50;99.90;;;;;;5095535;28;20500;-63
2022/12/11 13:06:00;;;;;;;4.03;3.28;;;-0.60;99.90;;;;;;5099578;28;20058;-64
2022/12/11 13:08:39;;;;;;;3.80;2.80;;;-0.50;99.90;;;;;;5079077;28;20434;-62
2022/12/11 13:11:10;;;;;;;3.50;3.20;;;-0.60;99.90;;;;;;5093120;28;20051;-65
2022/12/11 13:13:38;;;;;;;3.45;2.78;;;-0.60;99.90;;;;;;5094796;28;20043;-63
2022/12/11 13:16:16;;;;;;;4.20;3.30;;;-0.60;99.90;;;;;;5097338;28;20088;-65
2022/12/11 13:18:48;;;;;;;2.83;2.58;;;-0.70;99.90;;;;;;5097091;28;20050;-65
2022/12/11 13:21:37;;;;;;;3.25;2.63;;;-0.70;99.90;;;;;;5093976;28;20052;-65
2022/12/11 13:24:19;;;;;;;2.95;2.42;;;-0.80;99.90;;;;;;5096798;28;20050;-65